Time;durP1;ratioP1;P1;durP2;ratioP2;P2;SDS_P1;SDS_P2;PMS_P1;PMS_P2;Temp;Humidity;BMP_temperature;BMP_pressure;BME280_temperature;BME280_humidity;BME280_pressure;Samples;Min_cycle;Max_cycle;Signal;HPM_P1;HPM_P2
2023/06/28 00:01:04;;;;;;;0.40;0.20;;;11.60;1.00;;;;;;5045062;28;20044;-73
2023/06/28 00:03:30;;;;;;;0.28;0.28;;;11.70;1.00;;;;;;5045408;28;20113;-73
2023/06/28 00:05:56;;;;;;;0.13;0.13;;;11.70;37.40;;;;;;5045630;28;20052;-73
2023/06/28 00:08:22;;;;;;;0.32;0.30;;;11.70;97.30;;;;;;5044951;28;20045;-73
2023/06/28 00:10:49;;;;;;;0.05;0.05;;;11.70;1.00;;;;;;5045413;28;20403;-73
2023/06/28 00:13:15;;;;;;;0.10;0.10;;;11.70;1.00;;;;;;5044340;28;20499;-73
2023/06/28 00:15:40;;;;;;;0.00;0.00;;;11.70;1.00;;;;;;5044939;28;20373;-73
2023/06/28 00:18:07;;;;;;;0.03;0.03;;;11.70;42.30;;;;;;5044975;28;20045;-73
2023/06/28 00:20:34;;;;;;;0.00;0.00;;;11.80;86.40;;;;;;5044779;28;20057;-74
2023/06/28 00:23:00;;;;;;;0.63;0.45;;;11.80;85.40;;;;;;5044097;28;20060;-73
2023/06/28 00:25:25;;;;;;;0.00;0.00;;;11.80;99.90;;;;;;5045124;28;20400;-73
2023/06/28 00:27:51;;;;;;;0.10;0.10;;;11.70;82.40;;;;;;5044459;28;20077;-73
2023/06/28 00:30:17;;;;;;;0.15;0.15;;;11.80;96.50;;;;;;5044850;28;20045;-73
2023/06/28 00:32:43;;;;;;;0.00;0.00;;;11.70;99.90;;;;;;5044375;28;20483;-73
2023/06/28 00:35:09;;;;;;;0.28;0.10;;;11.60;99.90;;;;;;5044819;28;20127;-73
2023/06/28 00:37:34;;;;;;;0.28;0.28;;;11.60;99.90;;;;;;5044663;28;20090;-74
2023/06/28 00:40:00;;;;;;;0.00;0.00;;;11.50;99.90;;;;;;5044524;28;20048;-73
2023/06/28 00:42:26;;;;;;;0.82;0.60;;;11.50;99.90;;;;;;5042954;28;20562;-74
2023/06/28 00:44:51;;;;;;;0.00;0.00;;;11.50;99.90;;;;;;5044922;28;20057;-73
2023/06/28 00:47:18;;;;;;;0.00;0.00;;;11.50;99.90;;;;;;5045078;28;20048;-73
2023/06/28 00:49:45;;;;;;;0.10;0.10;;;11.50;99.90;;;;;;5044006;28;20052;-73
2023/06/28 00:52:12;;;;;;;0.10;0.10;;;11.50;99.90;;;;;;5043966;28;20464;-73
2023/06/28 00:54:39;;;;;;;0.10;0.10;;;11.50;99.90;;;;;;5044322;28;20515;-73
2023/06/28 00:57:05;;;;;;;0.17;0.17;;;11.50;99.90;;;;;;5044922;28;20392;-73
2023/06/28 00:59:31;;;;;;;0.00;0.00;;;11.50;99.90;;;;;;5044377;28;20080;-73
2023/06/28 01:01:57;;;;;;;3.00;0.52;;;11.50;99.90;;;;;;5043874;28;20095;-73
2023/06/28 01:04:23;;;;;;;0.20;0.10;;;11.50;99.90;;;;;;5044245;28;20450;-73
2023/06/28 01:06:54;;;;;;;0.73;0.10;;;11.40;99.90;;;;;;5044002;28;20052;-74
2023/06/28 01:09:24;;;;;;;0.52;0.52;;;11.50;99.90;;;;;;5036285;28;20056;-74
2023/06/28 01:11:52;;;;;;;0.00;0.00;;;11.40;99.90;;;;;;5043310;28;20469;-73
2023/06/28 01:14:19;;;;;;;0.38;0.38;;;11.40;99.90;;;;;;5043967;28;20080;-74
2023/06/28 01:16:49;;;;;;;0.57;0.47;;;11.40;99.90;;;;;;5043904;28;20095;-74
2023/06/28 01:19:16;;;;;;;0.20;0.10;;;11.40;99.90;;;;;;5043445;28;20103;-73
2023/06/28 01:21:45;;;;;;;0.25;0.22;;;11.30;99.90;;;;;;5043673;28;20047;-74
2023/06/28 01:24:12;;;;;;;0.00;0.00;;;11.30;99.90;;;;;;5043980;28;20618;-74
2023/06/28 01:26:39;;;;;;;0.00;0.00;;;11.30;99.90;;;;;;5043861;28;20140;-74
2023/06/28 01:29:06;;;;;;;0.00;0.00;;;11.30;99.90;;;;;;5043836;28;20037;-74
2023/06/28 01:31:32;;;;;;;1.45;0.75;;;11.30;99.90;;;;;;5042984;28;20084;-74
2023/06/28 01:33:58;;;;;;;0.20;0.20;;;11.30;99.90;;;;;;5043906;28;20079;-74
2023/06/28 01:36:24;;;;;;;0.08;0.08;;;11.20;99.90;;;;;;5043339;28;20040;-74
2023/06/28 01:38:51;;;;;;;0.00;0.00;;;11.20;99.90;;;;;;5043060;28;20567;-74
2023/06/28 01:41:17;;;;;;;0.05;0.05;;;11.20;99.90;;;;;;5042967;28;20411;-73
2023/06/28 01:43:43;;;;;;;0.00;0.00;;;11.20;99.90;;;;;;5041797;28;20132;-74
2023/06/28 01:46:10;;;;;;;0.00;0.00;;;11.20;99.90;;;;;;5043240;28;20119;-73
2023/06/28 01:48:35;;;;;;;0.00;0.00;;;11.20;99.90;;;;;;5043166;28;20044;-74
2023/06/28 01:51:02;;;;;;;0.25;0.20;;;11.10;99.90;;;;;;5042572;28;20138;-74
2023/06/28 01:53:27;;;;;;;0.20;0.20;;;11.10;99.90;;;;;;5042984;28;20083;-74
2023/06/28 01:55:53;;;;;;;0.20;0.20;;;11.20;99.90;;;;;;5043080;28;20084;-73
2023/06/28 01:58:19;;;;;;;4.95;1.65;;;11.20;99.90;;;;;;5043472;28;20415;-74
2023/06/28 02:00:44;;;;;;;0.00;0.00;;;11.20;99.90;;;;;;5042962;28;20040;-74
2023/06/28 02:03:10;;;;;;;0.00;0.00;;;11.20;99.90;;;;;;5042666;28;20481;-74
2023/06/28 02:05:36;;;;;;;0.13;0.13;;;11.30;99.90;;;;;;5043920;28;20050;-74
2023/06/28 02:08:02;;;;;;;0.55;0.40;;;11.40;99.90;;;;;;5043223;28;20151;-74
2023/06/28 02:10:28;;;;;;;2.85;1.42;;;11.40;99.90;;;;;;5042944;28;20045;-74
2023/06/28 02:12:56;;;;;;;0.30;0.30;;;11.40;99.90;;;;;;5042751;28;20467;-74
2023/06/28 02:15:22;;;;;;;0.38;0.20;;;11.40;99.90;;;;;;5043365;28;20079;-74
2023/06/28 02:17:48;;;;;;;0.10;0.10;;;11.40;99.90;;;;;;5042767;28;20043;-74
2023/06/28 02:20:14;;;;;;;6.82;1.70;;;11.40;99.90;;;;;;5040789;28;20118;-74
2023/06/28 02:22:40;;;;;;;0.43;0.30;;;11.40;99.90;;;;;;5042818;28;20049;-74
2023/06/28 02:25:06;;;;;;;0.10;0.10;;;11.50;99.90;;;;;;5043493;28;20473;-74
2023/06/28 02:27:32;;;;;;;1.13;0.82;;;11.50;99.90;;;;;;5042972;28;20539;-74
2023/06/28 02:29:58;;;;;;;0.38;0.38;;;11.60;99.90;;;;;;5042748;28;20396;-74
2023/06/28 02:32:25;;;;;;;0.10;0.10;;;11.60;99.90;;;;;;5042794;28;20095;-74
2023/06/28 02:34:50;;;;;;;0.38;0.35;;;11.60;99.90;;;;;;5042582;28;20052;-74
2023/06/28 02:37:16;;;;;;;0.03;0.03;;;11.70;99.90;;;;;;5042860;28;20488;-74
2023/06/28 02:39:42;;;;;;;0.95;0.57;;;11.70;99.90;;;;;;5042254;28;20047;-74
2023/06/28 02:42:08;;;;;;;0.10;0.10;;;11.70;99.90;;;;;;5042975;28;20037;-74
2023/06/28 02:44:36;;;;;;;1.45;0.85;;;11.70;99.90;;;;;;5042755;28;20403;-74
2023/06/28 02:47:02;;;;;;;0.10;0.05;;;11.70;99.90;;;;;;5042651;28;20095;-74
2023/06/28 02:49:28;;;;;;;0.90;0.73;;;11.80;99.90;;;;;;5042035;28;20148;-74
2023/06/28 02:51:53;;;;;;;2.80;0.60;;;12.00;99.90;;;;;;5042404;28;20048;-75
2023/06/28 02:54:19;;;;;;;1.75;1.17;;;11.80;99.90;;;;;;5042815;28;20045;-74
2023/06/28 02:56:44;;;;;;;0.25;0.25;;;11.90;99.90;;;;;;5042648;28;20630;-74
2023/06/28 02:59:10;;;;;;;0.10;0.10;;;11.90;99.90;;;;;;5042942;28;20068;-74
2023/06/28 03:01:36;;;;;;;4.68;1.17;;;11.90;99.90;;;;;;5042165;28;20124;-74
2023/06/28 03:04:02;;;;;;;0.43;0.38;;;12.00;99.90;;;;;;5042593;28;20405;-74
2023/06/28 03:06:27;;;;;;;0.20;0.20;;;12.00;99.90;;;;;;5042864;28;20434;-74
2023/06/28 03:08:53;;;;;;;0.10;0.10;;;12.10;99.90;;;;;;5042628;28;20051;-74
2023/06/28 03:11:19;;;;;;;0.00;0.00;;;12.10;99.90;;;;;;5041783;28;20446;-74
2023/06/28 03:13:44;;;;;;;0.00;0.00;;;12.10;99.90;;;;;;5042428;28;20057;-74
2023/06/28 03:16:10;;;;;;;3.50;1.55;;;12.20;99.90;;;;;;5042713;28;20048;-74
2023/06/28 03:18:36;;;;;;;0.38;0.38;;;12.20;99.90;;;;;;5042150;28;20048;-74
2023/06/28 03:21:02;;;;;;;0.57;0.45;;;12.20;99.90;;;;;;5042303;28;20045;-73
2023/06/28 03:23:27;;;;;;;0.00;0.00;;;12.20;99.90;;;;;;5042008;28;20051;-73
2023/06/28 03:25:53;;;;;;;0.13;0.05;;;12.30;99.90;;;;;;5042277;28;20088;-74
2023/06/28 03:28:19;;;;;;;0.17;0.13;;;12.30;99.90;;;;;;5041928;28;20515;-74
2023/06/28 03:30:45;;;;;;;0.45;0.20;;;12.30;99.90;;;;;;5041782;28;20513;-74
2023/06/28 03:33:10;;;;;;;0.13;0.13;;;12.30;99.90;;;;;;5045152;28;20036;-74
2023/06/28 03:35:36;;;;;;;0.20;0.10;;;12.40;99.90;;;;;;5045738;28;20048;-74
2023/06/28 03:38:02;;;;;;;3.80;0.30;;;12.50;99.90;;;;;;5045903;28;20118;-74
2023/06/28 03:40:30;;;;;;;0.00;0.00;;;12.50;99.90;;;;;;5045430;28;20041;-74
2023/06/28 03:42:56;;;;;;;0.28;0.28;;;12.70;99.90;;;;;;5045087;28;20454;-74
2023/06/28 03:45:22;;;;;;;1.08;0.30;;;12.60;99.90;;;;;;5045837;28;20056;-74
2023/06/28 03:47:47;;;;;;;0.40;0.20;;;12.60;99.90;;;;;;5045213;28;20045;-74
2023/06/28 03:50:13;;;;;;;0.95;0.90;;;12.60;99.90;;;;;;5045730;28;20125;-74
2023/06/28 03:52:39;;;;;;;0.55;0.52;;;12.80;99.90;;;;;;5045156;28;20037;-73
2023/06/28 03:55:06;;;;;;;0.40;0.35;;;12.70;99.90;;;;;;5045119;28;20095;-73
2023/06/28 03:57:32;;;;;;;2.85;0.30;;;12.80;99.90;;;;;;5032080;28;20046;-74
2023/06/28 03:59:58;;;;;;;0.08;0.08;;;12.80;99.90;;;;;;5032962;28;20045;-74
2023/06/28 04:02:24;;;;;;;0.10;0.10;;;12.90;99.90;;;;;;5044957;28;20049;-74
2023/06/28 04:04:49;;;;;;;0.40;0.30;;;12.90;99.90;;;;;;5045177;28;20049;-74
2023/06/28 04:07:15;;;;;;;0.05;0.05;;;13.00;99.90;;;;;;5044823;28;20044;-74
2023/06/28 04:09:42;;;;;;;0.17;0.17;;;13.00;99.90;;;;;;5044781;28;20123;-73
2023/06/28 04:12:08;;;;;;;0.20;0.20;;;13.10;99.90;;;;;;5044602;28;20080;-74
2023/06/28 04:14:34;;;;;;;0.00;0.00;;;13.20;99.90;;;;;;5044607;28;20083;-74
2023/06/28 04:16:59;;;;;;;0.28;0.28;;;13.20;99.90;;;;;;5044884;28;20135;-74
2023/06/28 04:19:25;;;;;;;18.73;0.70;;;13.30;99.90;;;;;;5044827;28;20047;-74
2023/06/28 04:21:51;;;;;;;0.17;0.15;;;13.30;99.90;;;;;;5044488;28;20045;-74
2023/06/28 04:24:16;;;;;;;1.55;0.80;;;13.40;99.90;;;;;;5044662;28;20087;-74
2023/06/28 04:26:42;;;;;;;0.10;0.10;;;13.40;99.90;;;;;;5044803;28;20357;-73
2023/06/28 04:29:08;;;;;;;0.25;0.25;;;13.60;99.90;;;;;;5044302;28;20040;-74
2023/06/28 04:31:34;;;;;;;0.77;0.77;;;13.60;99.90;;;;;;5044143;28;20037;-74
2023/06/28 04:34:00;;;;;;;0.43;0.15;;;13.70;99.90;;;;;;5044141;28;20080;-74
2023/06/28 04:36:26;;;;;;;0.10;0.10;;;13.70;99.90;;;;;;5044749;28;20037;-73
2023/06/28 04:38:54;;;;;;;0.70;0.70;;;13.80;99.90;;;;;;5044574;28;20094;-74
2023/06/28 04:41:22;;;;;;;1.25;0.90;;;13.80;99.90;;;;;;5044527;28;20048;-74
2023/06/28 04:43:47;;;;;;;2.45;1.33;;;13.90;99.90;;;;;;5044103;28;20064;-74
2023/06/28 04:46:13;;;;;;;0.00;0.00;;;13.90;99.90;;;;;;5044413;28;20040;-74
2023/06/28 04:48:41;;;;;;;0.73;0.35;;;13.90;99.90;;;;;;5044658;28;20048;-74
2023/06/28 04:51:07;;;;;;;0.15;0.15;;;13.90;99.90;;;;;;5045189;28;20044;-73
2023/06/28 04:53:32;;;;;;;0.45;0.45;;;13.90;99.90;;;;;;5044406;28;20045;-74
2023/06/28 04:56:00;;;;;;;0.17;0.17;;;13.90;99.90;;;;;;5044935;28;20045;-74
2023/06/28 04:58:26;;;;;;;0.00;0.00;;;13.90;99.90;;;;;;5044582;28;20060;-74
2023/06/28 05:00:52;;;;;;;2.10;0.65;;;13.80;99.90;;;;;;5044682;28;20498;-74
2023/06/28 05:03:17;;;;;;;0.28;0.28;;;13.90;99.90;;;;;;5044557;28;20084;-74
2023/06/28 05:05:43;;;;;;;0.20;0.20;;;13.90;99.90;;;;;;5044467;28;20044;-74
2023/06/28 05:08:13;;;;;;;0.10;0.10;;;14.00;99.90;;;;;;5044345;28;20109;-74
2023/06/28 05:10:39;;;;;;;0.35;0.32;;;13.90;99.90;;;;;;5044384;28;20084;-73
2023/06/28 05:13:05;;;;;;;1.95;0.35;;;13.90;99.90;;;;;;5043139;28;20464;-74
2023/06/28 05:15:32;;;;;;;5.47;1.48;;;13.90;99.90;;;;;;5044649;28;20044;-74
2023/06/28 05:17:58;;;;;;;0.00;0.00;;;14.80;99.90;;;;;;5044349;28;20104;-74
2023/06/28 05:20:25;;;;;;;0.00;0.00;;;14.00;99.90;;;;;;5044570;28;20045;-74
2023/06/28 05:23:23;;;;;;;0.00;0.00;;;14.20;99.90;;;;;;5044150;28;20099;-74
2023/06/28 05:25:49;;;;;;;0.17;0.17;;;14.30;99.90;;;;;;5044429;28;20044;-73
2023/06/28 05:28:16;;;;;;;0.10;0.10;;;14.40;99.90;;;;;;5044272;28;20045;-74
2023/06/28 05:30:43;;;;;;;8.77;1.65;;;14.50;99.90;;;;;;5044137;28;20091;-74
2023/06/28 05:33:09;;;;;;;0.00;0.00;;;14.60;99.90;;;;;;5044546;28;20048;-74
2023/06/28 05:35:35;;;;;;;0.00;0.00;;;14.70;99.90;;;;;;5044181;28;20049;-74
2023/06/28 05:38:03;;;;;;;0.10;0.03;;;14.80;99.90;;;;;;5043915;28;20037;-74
2023/06/28 05:40:29;;;;;;;0.17;0.17;;;14.60;99.90;;;;;;5042694;28;20415;-74
2023/06/28 05:42:57;;;;;;;0.00;0.00;;;14.90;99.90;;;;;;5043629;28;20125;-73
2023/06/28 05:45:23;;;;;;;0.00;0.00;;;15.00;99.90;;;;;;5043902;28;20061;-74
2023/06/28 05:47:50;;;;;;;0.30;0.22;;;15.10;99.90;;;;;;5042060;28;20049;-74
2023/06/28 05:50:16;;;;;;;0.10;0.10;;;15.20;99.90;;;;;;5041925;28;20105;-74
2023/06/28 05:52:44;;;;;;;0.70;0.68;;;15.40;99.90;;;;;;5042083;28;20258;-74
2023/06/28 05:55:10;;;;;;;0.00;0.00;;;15.60;60.60;;;;;;5041611;28;20115;-74
2023/06/28 05:57:36;;;;;;;0.20;0.13;;;15.70;1.00;;;;;;5040863;28;20124;-73
2023/06/28 06:00:04;;;;;;;0.05;0.00;;;15.90;99.90;;;;;;5042047;28;20076;-73
2023/06/28 06:02:29;;;;;;;0.00;0.00;;;16.10;99.90;;;;;;5042119;28;20079;-73
2023/06/28 06:04:55;;;;;;;2.00;0.52;;;16.10;99.90;;;;;;5042317;28;20166;-73
2023/06/28 06:07:21;;;;;;;0.10;0.10;;;16.30;99.90;;;;;;5042064;28;20045;-73
2023/06/28 06:09:46;;;;;;;0.20;0.20;;;16.50;97.50;;;;;;5042460;28;20140;-73
2023/06/28 06:12:12;;;;;;;0.52;0.47;;;16.50;1.00;;;;;;5041861;28;20403;-73
2023/06/28 06:14:39;;;;;;;2.35;0.85;;;16.60;99.90;;;;;;5042001;28;20141;-73
2023/06/28 06:17:05;;;;;;;0.10;0.05;;;16.60;44.50;;;;;;5032573;28;20502;-73
2023/06/28 06:19:31;;;;;;;0.35;0.32;;;16.50;1.00;;;;;;5032092;28;20052;-73
2023/06/28 06:21:56;;;;;;;0.20;0.15;;;16.50;15.90;;;;;;5031039;28;20404;-73
2023/06/28 06:24:22;;;;;;;0.80;0.73;;;16.60;1.00;;;;;;5030897;28;20530;-73
2023/06/28 06:26:48;;;;;;;0.10;0.10;;;16.60;1.00;;;;;;5032206;28;20537;-73
2023/06/28 06:29:13;;;;;;;1.63;0.73;;;16.80;99.90;;;;;;5030145;28;20563;-73
2023/06/28 06:31:39;;;;;;;0.90;0.45;;;16.80;99.90;;;;;;5031112;28;20037;-73
2023/06/28 06:34:05;;;;;;;0.90;0.25;;;16.80;99.90;;;;;;5024535;28;20080;-73
2023/06/28 06:36:30;;;;;;;0.30;0.30;;;16.80;1.00;;;;;;5033506;28;20475;-73
2023/06/28 06:38:56;;;;;;;7.60;0.80;;;16.80;1.00;;;;;;5042031;28;20059;-73
2023/06/28 06:41:22;;;;;;;0.75;0.35;;;16.70;99.90;;;;;;5037926;28;20060;-73
2023/06/28 06:43:49;;;;;;;0.65;0.65;;;16.60;99.90;;;;;;5041628;28;20045;-73
2023/06/28 06:46:15;;;;;;;0.63;0.32;;;16.70;99.90;;;;;;5039249;28;20079;-73
2023/06/28 06:48:41;;;;;;;0.10;0.10;;;16.60;99.90;;;;;;5028482;28;20057;-73
2023/06/28 06:51:07;;;;;;;0.32;0.30;;;16.50;1.00;;;;;;5029105;28;20045;-73
2023/06/28 06:53:33;;;;;;;0.30;0.22;;;16.80;99.90;;;;;;5028791;28;20061;-73
2023/06/28 06:55:59;;;;;;;0.10;0.10;;;16.80;99.90;;;;;;5029814;28;20427;-73
2023/06/28 06:58:25;;;;;;;0.30;0.30;;;16.90;99.90;;;;;;5030748;28;20503;-73
2023/06/28 07:00:52;;;;;;;0.32;0.20;;;16.90;99.90;;;;;;5039240;28;20567;-73
2023/06/28 07:03:18;;;;;;;0.00;0.00;;;17.00;99.90;;;;;;5038964;28;20060;-74
2023/06/28 07:05:44;;;;;;;0.82;0.80;;;16.90;99.90;;;;;;5038556;28;20227;-73
2023/06/28 07:08:10;;;;;;;0.00;0.00;;;16.80;99.90;;;;;;5043252;28;20424;-73
2023/06/28 07:10:35;;;;;;;1.55;0.40;;;16.70;93.50;;;;;;5031762;28;20585;-73
2023/06/28 07:13:01;;;;;;;0.15;0.10;;;16.60;99.90;;;;;;5033746;28;20048;-73
2023/06/28 07:15:27;;;;;;;1.25;0.60;;;16.50;99.90;;;;;;5042870;28;20127;-73
2023/06/28 07:17:53;;;;;;;3.45;0.90;;;16.30;99.90;;;;;;5042946;28;20048;-73
2023/06/28 07:20:20;;;;;;;0.10;0.10;;;16.20;99.90;;;;;;5042680;28;20504;-73
2023/06/28 07:22:45;;;;;;;12.02;0.50;;;16.10;38.40;;;;;;5041574;28;20510;-73
2023/06/28 07:25:11;;;;;;;0.38;0.38;;;15.90;1.00;;;;;;5042870;28;20041;-74
2023/06/28 07:27:37;;;;;;;0.75;0.43;;;15.70;87.50;;;;;;5042345;28;20049;-74
2023/06/28 07:30:03;;;;;;;0.50;0.45;;;15.60;47.50;;;;;;5042502;28;20452;-74
2023/06/28 07:32:29;;;;;;;0.47;0.43;;;15.50;99.90;;;;;;5042010;28;20049;-74
2023/06/28 07:34:55;;;;;;;1.75;0.55;;;15.50;99.90;;;;;;5042263;28;20102;-73
2023/06/28 07:37:21;;;;;;;0.28;0.28;;;15.50;99.90;;;;;;5041509;28;20141;-73
2023/06/28 07:39:47;;;;;;;1.23;1.13;;;15.50;99.90;;;;;;5042557;28;20528;-73
2023/06/28 07:42:13;;;;;;;0.00;0.00;;;15.60;99.90;;;;;;5041830;28;20049;-73
2023/06/28 07:44:39;;;;;;;1.23;0.55;;;15.60;99.90;;;;;;5039062;28;20087;-73
2023/06/28 07:47:05;;;;;;;1.95;1.15;;;15.70;99.90;;;;;;5032474;28;20045;-73
2023/06/28 07:49:31;;;;;;;3.17;1.17;;;15.80;99.90;;;;;;5034369;28;20052;-73
2023/06/28 07:52:00;;;;;;;0.82;0.73;;;15.90;99.90;;;;;;5041844;28;20049;-73
2023/06/28 07:54:25;;;;;;;0.43;0.30;;;15.90;99.90;;;;;;5042201;28;20452;-73
2023/06/28 07:56:51;;;;;;;2.58;1.10;;;15.90;99.90;;;;;;5042004;28;20037;-73
2023/06/28 07:59:19;;;;;;;0.38;0.30;;;15.80;99.90;;;;;;5042244;28;20045;-73
2023/06/28 08:01:46;;;;;;;0.43;0.10;;;15.70;99.90;;;;;;5041995;28;20103;-73
2023/06/28 08:04:11;;;;;;;0.43;0.20;;;15.70;99.90;;;;;;5036915;28;20049;-73
2023/06/28 08:06:37;;;;;;;1.08;0.60;;;15.60;99.90;;;;;;5038517;28;20576;-73
2023/06/28 08:09:03;;;;;;;0.93;0.57;;;15.70;99.90;;;;;;5041981;28;20041;-73
2023/06/28 08:11:29;;;;;;;0.98;0.65;;;15.70;99.90;;;;;;5038747;28;20132;-73
2023/06/28 08:13:54;;;;;;;0.52;0.52;;;15.90;99.90;;;;;;5042070;28;20051;-72
2023/06/28 08:16:20;;;;;;;0.80;0.60;;;16.10;99.90;;;;;;5042351;28;20045;-73
2023/06/28 08:18:46;;;;;;;2.05;0.38;;;16.20;99.90;;;;;;5040596;28;20135;-73
2023/06/28 08:21:11;;;;;;;0.47;0.20;;;16.30;99.90;;;;;;5042257;28;20037;-73
2023/06/28 08:23:37;;;;;;;0.35;0.30;;;16.40;99.90;;;;;;5041921;28;20138;-74
2023/06/28 08:26:03;;;;;;;0.43;0.43;;;16.50;99.90;;;;;;5036043;28;20051;-74
2023/06/28 08:28:28;;;;;;;0.52;0.30;;;16.60;99.90;;;;;;5031944;28;20045;-74
2023/06/28 08:30:54;;;;;;;0.00;0.00;;;16.70;99.90;;;;;;5029311;28;20057;-74
2023/06/28 08:33:22;;;;;;;0.38;0.38;;;16.70;99.90;;;;;;5021198;28;20458;-74
2023/06/28 08:35:48;;;;;;;0.40;0.40;;;16.70;99.90;;;;;;5032928;28;20411;-74
2023/06/28 08:38:14;;;;;;;0.30;0.30;;;16.70;99.90;;;;;;5031506;28;20083;-74
2023/06/28 08:40:39;;;;;;;3.13;0.75;;;16.70;99.90;;;;;;5037569;28;20051;-74
2023/06/28 08:43:06;;;;;;;2.40;1.23;;;16.80;99.90;;;;;;5032537;28;20540;-74
2023/06/28 08:45:35;;;;;;;0.98;0.22;;;16.70;99.90;;;;;;5033537;28;20040;-73
2023/06/28 08:48:02;;;;;;;2.88;0.90;;;16.60;99.90;;;;;;5031386;28;20049;-73
2023/06/28 08:50:28;;;;;;;3.17;1.30;;;16.60;99.90;;;;;;5029881;28;20047;-74
2023/06/28 08:52:58;;;;;;;0.13;0.13;;;16.70;99.90;;;;;;5030165;28;20462;-74
2023/06/28 08:55:25;;;;;;;0.52;0.32;;;16.70;99.90;;;;;;5030987;28;20053;-73
2023/06/28 08:57:52;;;;;;;1.20;1.00;;;16.80;99.90;;;;;;5036755;28;20048;-73
2023/06/28 09:00:18;;;;;;;0.95;0.55;;;16.90;99.90;;;;;;5039804;28;20431;-73
2023/06/28 09:02:43;;;;;;;0.30;0.28;;;17.00;99.90;;;;;;5040583;28;20053;-74
2023/06/28 09:05:10;;;;;;;0.63;0.43;;;17.10;99.90;;;;;;5038417;28;20029;-73
2023/06/28 09:07:40;;;;;;;1.65;1.17;;;17.10;99.90;;;;;;5030560;28;20459;-74
2023/06/28 09:10:10;;;;;;;0.70;0.60;;;17.00;99.90;;;;;;5029863;28;20056;-74
2023/06/28 09:12:36;;;;;;;0.50;0.50;;;16.90;99.90;;;;;;5030472;28;20424;-74
2023/06/28 09:15:03;;;;;;;1.08;0.95;;;16.90;99.90;;;;;;5040406;28;20542;-74
2023/06/28 09:17:29;;;;;;;0.68;0.68;;;16.90;99.90;;;;;;5040884;28;20044;-74
2023/06/28 09:20:25;;;;;;;0.32;0.32;;;16.90;99.90;;;;;;5039211;28;20049;-73
2023/06/28 09:22:59;;;;;;;2.17;2.00;;;16.90;99.90;;;;;;5038511;28;20507;-73
2023/06/28 09:25:31;;;;;;;0.68;0.57;;;16.90;99.90;;;;;;5040177;28;20510;-73
2023/06/28 09:27:57;;;;;;;0.47;0.45;;;17.00;99.90;;;;;;5040362;28;20056;-73
2023/06/28 09:30:23;;;;;;;2.08;0.70;;;16.90;99.90;;;;;;5039394;28;20844;-73
2023/06/28 09:32:52;;;;;;;1.55;0.85;;;16.90;99.90;;;;;;5039349;28;20503;-74
2023/06/28 09:35:18;;;;;;;0.93;0.68;;;16.90;99.90;;;;;;5040140;28;20052;-74
2023/06/28 09:37:54;;;;;;;0.38;0.38;;;17.00;99.90;;;;;;5040360;28;20092;-73
2023/06/28 09:40:20;;;;;;;;;;;17.00;99.90;;;;;;5040502;28;20454;-74
2023/06/28 09:42:48;;;;;;;0.63;0.50;;;17.00;99.90;;;;;;5040041;28;19924;-73
2023/06/28 09:45:28;;;;;;;0.70;0.70;;;17.00;99.90;;;;;;5039961;28;20349;-74
2023/06/28 09:47:58;;;;;;;1.95;0.70;;;16.90;99.90;;;;;;5021235;28;20575;-74
2023/06/28 09:50:38;;;;;;;0.93;0.77;;;17.00;99.90;;;;;;5040238;28;20128;-74
2023/06/28 09:53:16;;;;;;;0.45;0.45;;;17.00;99.90;;;;;;5038495;28;20183;-74
2023/06/28 09:55:43;;;;;;;2.55;1.33;;;17.00;99.90;;;;;;5039832;28;20060;-73
2023/06/28 09:58:11;;;;;;;0.80;0.80;;;17.00;99.90;;;;;;5039285;28;20052;-73
2023/06/28 10:00:38;;;;;;;0.73;0.65;;;17.10;99.90;;;;;;5039813;28;20133;-73
2023/06/28 10:03:07;;;;;;;1.13;0.77;;;17.10;99.90;;;;;;5040016;28;20049;-74
2023/06/28 10:05:35;;;;;;;0.40;0.30;;;17.10;99.90;;;;;;5039683;28;20037;-73
2023/06/28 10:08:04;;;;;;;1.17;1.08;;;17.10;99.90;;;;;;5039848;28;20045;-73
2023/06/28 10:10:32;;;;;;;1.65;0.30;;;17.10;99.90;;;;;;5039197;28;20111;-73
2023/06/28 10:12:59;;;;;;;1.73;1.48;;;17.00;99.90;;;;;;5039321;28;20049;-73
2023/06/28 10:15:28;;;;;;;3.25;1.77;;;17.00;99.90;;;;;;5039000;28;20045;-73
2023/06/28 10:17:57;;;;;;;4.28;1.95;;;17.10;99.90;;;;;;5039360;28;20099;-73
2023/06/28 10:20:23;;;;;;;1.55;1.38;;;16.90;99.90;;;;;;5039021;28;20419;-73
2023/06/28 10:22:49;;;;;;;2.83;1.65;;;16.90;99.90;;;;;;5039716;28;20048;-73
2023/06/28 10:25:15;;;;;;;3.50;1.55;;;16.90;99.90;;;;;;5039538;28;20123;-72
2023/06/28 10:27:41;;;;;;;1.17;0.70;;;17.00;99.90;;;;;;5039346;28;20080;-73
2023/06/28 10:30:07;;;;;;;9.27;1.27;;;17.00;99.90;;;;;;5039555;28;20052;-73
2023/06/28 10:32:34;;;;;;;1.02;1.00;;;17.10;99.90;;;;;;5038812;28;20540;-73
2023/06/28 10:35:02;;;;;;;0.63;0.63;;;17.00;99.90;;;;;;5039570;28;20045;-72
2023/06/28 10:37:28;;;;;;;2.90;1.15;;;17.10;99.90;;;;;;5039198;28;20040;-72
2023/06/28 10:39:54;;;;;;;4.60;1.27;;;17.00;99.90;;;;;;5039703;28;20118;-72
2023/06/28 10:42:21;;;;;;;2.13;1.13;;;17.10;99.90;;;;;;5041656;28;20558;-72
2023/06/28 10:44:54;;;;;;;1.10;0.55;;;17.00;99.90;;;;;;5043576;28;20067;-72
2023/06/28 10:47:20;;;;;;;3.95;1.60;;;17.10;99.90;;;;;;5026474;28;20045;-71
2023/06/28 10:50:04;;;;;;;1.30;0.70;;;17.10;99.90;;;;;;5039113;28;20044;-71
2023/06/28 10:52:30;;;;;;;20.42;1.85;;;17.20;99.90;;;;;;5043401;28;20160;-71
2023/06/28 10:54:56;;;;;;;0.70;0.30;;;17.20;99.90;;;;;;5043047;28;20384;-72
2023/06/28 10:57:37;;;;;;;1.85;1.00;;;17.30;99.90;;;;;;5043004;28;20051;-72
2023/06/28 11:00:11;;;;;;;3.33;1.38;;;17.40;99.90;;;;;;5042894;28;20643;-72
2023/06/28 11:02:54;;;;;;;2.35;1.35;;;17.60;99.90;;;;;;5042760;28;20041;-72
2023/06/28 11:05:44;;;;;;;1.15;0.80;;;17.60;99.90;;;;;;5042192;28;20048;-72
2023/06/28 11:08:15;;;;;;;14.90;1.90;;;17.60;99.90;;;;;;5042937;28;20838;-74
2023/06/28 11:11:01;;;;;;;1.48;1.25;;;17.80;99.90;;;;;;5037040;28;20052;-74
2023/06/28 11:13:39;;;;;;;0.70;0.70;;;17.90;99.90;;;;;;5038494;28;20503;-74
2023/06/28 11:16:10;;;;;;;1.02;0.75;;;17.90;99.90;;;;;;5043182;28;20144;-74
2023/06/28 11:18:37;;;;;;;1.77;1.05;;;18.00;99.90;;;;;;5045160;28;20438;-74
2023/06/28 11:21:03;;;;;;;1.20;1.02;;;18.10;99.90;;;;;;5044459;28;20108;-74
2023/06/28 11:23:36;;;;;;;1.02;0.93;;;18.20;99.90;;;;;;5039739;28;20071;-73
2023/06/28 11:26:07;;;;;;;3.70;1.10;;;18.20;99.90;;;;;;5034746;28;20046;-74
2023/06/28 11:28:34;;;;;;;0.68;0.68;;;18.20;99.90;;;;;;5044988;28;20443;-74
2023/06/28 11:31:16;;;;;;;1.10;0.73;;;18.30;99.90;;;;;;5041463;28;20507;-74
2023/06/28 11:33:42;;;;;;;0.68;0.68;;;18.30;99.90;;;;;;5044941;28;20048;-74
2023/06/28 11:36:09;;;;;;;0.10;0.10;;;18.20;99.90;;;;;;5045345;28;20045;-74
2023/06/28 11:38:36;;;;;;;1.38;1.08;;;18.40;99.90;;;;;;5044493;28;20129;-74
2023/06/28 11:41:01;;;;;;;0.65;0.63;;;18.50;99.90;;;;;;5037272;28;20038;-74
2023/06/28 11:43:27;;;;;;;1.15;1.02;;;18.60;99.90;;;;;;5025141;28;20053;-73
2023/06/28 11:45:53;;;;;;;2.22;1.38;;;18.80;99.90;;;;;;5039523;28;20451;-73
2023/06/28 11:48:21;;;;;;;3.72;0.90;;;18.90;99.90;;;;;;5044611;28;20114;-73
2023/06/28 11:50:57;;;;;;;0.90;0.73;;;18.90;1.00;;;;;;5044159;28;20037;-73
2023/06/28 11:53:25;;;;;;;1.20;0.93;;;18.90;17.90;;;;;;5041994;28;20084;-73
2023/06/28 11:55:53;;;;;;;1.13;1.02;;;19.00;99.90;;;;;;5024793;28;20049;-74
2023/06/28 11:58:35;;;;;;;1.30;0.90;;;19.00;99.90;;;;;;5024801;28;20050;-74
2023/06/28 12:01:05;;;;;;;1.92;1.05;;;19.00;99.90;;;;;;5032854;28;20087;-74
2023/06/28 12:03:34;;;;;;;0.38;0.20;;;19.00;1.00;;;;;;5044365;28;20103;-74
2023/06/28 12:06:02;;;;;;;1.73;0.57;;;19.00;99.90;;;;;;5044599;28;20053;-74
2023/06/28 12:08:35;;;;;;;0.52;0.50;;;19.00;99.90;;;;;;5044487;28;20045;-73
2023/06/28 12:11:11;;;;;;;0.52;0.47;;;19.00;99.90;;;;;;5044174;28;20110;-73
2023/06/28 12:13:37;;;;;;;2.65;1.00;;;19.00;99.90;;;;;;5044285;28;20451;-73
2023/06/28 12:16:12;;;;;;;0.43;0.43;;;19.00;99.90;;;;;;5044227;28;20052;-73
2023/06/28 12:18:57;;;;;;;1.00;0.93;;;19.10;99.90;;;;;;5044306;28;20136;-73
2023/06/28 12:21:25;;;;;;;0.65;0.65;;;19.20;1.00;;;;;;5035115;28;20051;-74
2023/06/28 12:23:51;;;;;;;1.30;0.65;;;19.20;1.00;;;;;;5044208;28;20055;-73
2023/06/28 12:26:17;;;;;;;2.92;1.80;;;19.20;99.90;;;;;;5043830;28;20052;-73
2023/06/28 12:28:47;;;;;;;1.25;0.77;;;19.30;99.90;;;;;;5043822;28;20056;-73
2023/06/28 12:31:13;;;;;;;2.95;1.20;;;19.30;99.90;;;;;;5044442;28;20052;-73
2023/06/28 12:33:39;;;;;;;1.48;1.17;;;19.30;99.90;;;;;;5044150;28;20064;-73
2023/06/28 12:36:05;;;;;;;0.85;0.70;;;19.30;1.00;;;;;;5044016;28;20946;-73
2023/06/28 12:38:30;;;;;;;0.85;0.73;;;19.40;99.90;;;;;;5043755;28;20126;-73
2023/06/28 12:40:56;;;;;;;0.32;0.32;;;19.40;15.90;;;;;;5043244;28;20052;-73
2023/06/28 12:43:25;;;;;;;0.88;0.40;;;19.40;99.90;;;;;;5043878;28;20496;-73
2023/06/28 12:45:55;;;;;;;2.40;1.33;;;19.40;99.90;;;;;;5043723;28;20390;-73
2023/06/28 12:48:21;;;;;;;3.47;1.58;;;19.40;84.00;;;;;;5043767;28;20048;-73